Jerome, Missouri
Current Conditions -  °F | °C
As of 1:58 AM on Sunday 21 Dec 2014 (Local Time) from KTBN Reporting Station
Overcast Overcast  
Wind Chill: 40°   Ceiling: 2300
Heat Index: 40°   Visibility: 10mi
Dew Point: 37°   Wind: 3mph
Humidity: 92%   Direction: 150°SSE
Pressure: 30.15"   Gusts: NA
Location:  37.93°N, 91.98°W
Report Text: KTBN 210758Z AUTO 15003KT 10SM OVC023 04/03 A3015 RMK AO2 SLP219 T00420030 $
Loading
Personal Weather Stations






























Interactive Weather Map New forecast layout! Learn more

10-Day Weather Forecast

Advertisements
Track Severe Weather on mobile